createdAt,value
2019-03-04T00:00:46.659Z,10.20
2019-03-04T00:03:15.062Z,10.10
2019-03-04T00:05:43.365Z,10.10
2019-03-04T00:08:11.624Z,10.10
2019-03-04T00:10:39.852Z,10.10
2019-03-04T00:13:08.085Z,10.10
2019-03-04T00:15:36.347Z,10.10
2019-03-04T00:18:04.564Z,10.10
2019-03-04T00:20:32.808Z,10.10
2019-03-04T00:23:01.030Z,10.10
2019-03-04T00:25:29.251Z,10.10
2019-03-04T00:27:57.511Z,10.10
2019-03-04T00:30:25.745Z,10.20
2019-03-04T00:32:53.974Z,10.20
2019-03-04T00:35:22.242Z,10.30
2019-03-04T00:37:50.451Z,10.30
2019-03-04T00:40:18.699Z,10.30
2019-03-04T00:42:46.998Z,10.30
2019-03-04T00:45:15.286Z,10.40
2019-03-04T00:47:43.539Z,10.50
2019-03-04T00:50:13.910Z,10.60
2019-03-04T00:52:42.147Z,10.60
2019-03-04T00:55:11.115Z,10.70
2019-03-04T00:57:39.504Z,10.70
2019-03-04T01:00:17.365Z,10.90
2019-03-04T01:02:45.600Z,10.90
2019-03-04T01:05:13.833Z,11.00
2019-03-04T01:07:42.072Z,11.00
2019-03-04T01:10:12.360Z,11.10
2019-03-04T01:12:40.575Z,11.20
2019-03-04T01:15:11.617Z,11.30
2019-03-04T01:17:39.887Z,11.60
2019-03-04T01:20:13.284Z,11.80
2019-03-04T01:22:41.515Z,12.10
2019-03-04T01:25:19.316Z,12.30
2019-03-04T01:27:47.570Z,12.50
2019-03-04T01:30:23.684Z,12.60
2019-03-04T01:32:52.869Z,12.60
2019-03-04T01:35:21.106Z,12.60
2019-03-04T01:37:49.345Z,12.70
2019-03-04T01:40:19.418Z,12.70
2019-03-04T01:42:47.678Z,12.80
2019-03-04T01:45:16.839Z,12.80
2019-03-04T01:47:45.091Z,12.70
2019-03-04T01:50:15.058Z,12.80
2019-03-04T01:52:43.305Z,12.80
2019-03-04T01:55:12.870Z,12.70
2019-03-04T01:57:41.107Z,12.70
2019-03-04T02:00:19.436Z,12.70
2019-03-04T02:02:47.671Z,12.70
2019-03-04T02:05:15.891Z,12.70
2019-03-04T02:07:44.119Z,12.60
2019-03-04T02:10:14.869Z,12.60
2019-03-04T02:12:43.110Z,12.50
2019-03-04T02:15:16.062Z,12.40
2019-03-04T02:17:44.279Z,12.40
2019-03-04T02:20:14.771Z,12.30
2019-03-04T02:22:43.074Z,12.40
2019-03-04T02:25:13.254Z,12.30
2019-03-04T02:27:44.433Z,12.30
2019-03-04T02:30:27.279Z,12.40
2019-03-04T02:32:55.529Z,12.40
2019-03-04T02:35:23.761Z,12.40
2019-03-04T02:37:51.997Z,12.30
2019-03-04T02:40:20.253Z,12.40
2019-03-04T02:42:48.466Z,12.30
2019-03-04T02:45:18.339Z,12.20
2019-03-04T02:47:47.220Z,12.20
2019-03-04T02:50:15.930Z,12.10
2019-03-04T02:52:44.187Z,12.10
2019-03-04T02:55:12.852Z,12.00
2019-03-04T02:57:41.085Z,12.00
2019-03-04T03:00:12.458Z,11.90
2019-03-04T03:02:40.705Z,12.00
2019-03-04T03:05:09.195Z,12.00
2019-03-04T03:07:37.432Z,12.10
2019-03-04T03:10:08.279Z,12.20
2019-03-04T03:12:36.510Z,12.30
2019-03-04T03:15:06.889Z,12.20
2019-03-04T03:17:35.134Z,12.10
2019-03-04T03:20:04.082Z,12.00
2019-03-04T03:22:32.329Z,11.90
2019-03-04T03:25:00.547Z,11.90
2019-03-04T03:27:28.788Z,11.90
2019-03-04T03:29:57.019Z,11.90
2019-03-04T03:32:25.283Z,11.90
2019-03-04T03:34:53.581Z,11.90
2019-03-04T03:37:21.834Z,11.80
2019-03-04T03:39:50.072Z,11.80
2019-03-04T03:42:19.150Z,11.80
2019-03-04T03:44:47.651Z,11.80
2019-03-04T03:47:15.898Z,11.80
2019-03-04T03:49:44.141Z,11.70
2019-03-04T03:52:12.374Z,11.80
2019-03-04T03:54:40.680Z,11.70
2019-03-04T03:57:08.912Z,11.80
2019-03-04T03:59:37.168Z,11.80
2019-03-04T04:02:05.404Z,11.70
2019-03-04T04:04:33.634Z,11.60
2019-03-04T04:07:01.882Z,11.60
2019-03-04T04:09:30.129Z,11.40
2019-03-04T04:11:58.367Z,11.40
2019-03-04T04:14:29.206Z,11.30
2019-03-04T04:16:56.556Z,11.30
2019-03-04T04:19:24.799Z,11.20
2019-03-04T04:21:53.030Z,11.10
2019-03-04T04:24:21.284Z,11.00
2019-03-04T04:26:49.508Z,11.00
2019-03-04T04:29:17.750Z,11.00
2019-03-04T04:31:45.996Z,11.00
2019-03-04T04:34:14.264Z,11.00
2019-03-04T04:36:42.483Z,11.00
2019-03-04T04:39:10.723Z,10.90
2019-03-04T04:41:38.969Z,10.90
2019-03-04T04:44:07.217Z,10.90
2019-03-04T04:46:47.212Z,10.90
2019-03-04T04:49:15.464Z,10.90
2019-03-04T04:51:43.678Z,10.80
2019-03-04T04:54:11.930Z,10.80
2019-03-04T04:56:40.163Z,10.80
2019-03-04T04:59:08.405Z,10.70
2019-03-04T05:01:36.651Z,10.70
2019-03-04T05:04:04.873Z,10.70
2019-03-04T05:06:33.118Z,10.70
2019-03-04T05:09:01.378Z,10.70
2019-03-04T05:11:29.620Z,10.60
2019-03-04T05:13:57.858Z,10.70
2019-03-04T05:16:26.086Z,10.60
2019-03-04T05:18:54.327Z,10.70
2019-03-04T05:21:22.563Z,10.70
2019-03-04T05:23:50.800Z,10.70
2019-03-04T05:26:19.028Z,10.70
2019-03-04T05:28:47.276Z,10.80
2019-03-04T05:31:15.520Z,10.80
2019-03-04T05:33:43.783Z,10.80
2019-03-04T05:36:12.009Z,10.80
2019-03-04T05:38:40.246Z,10.70
2019-03-04T05:41:08.481Z,10.80
2019-03-04T05:43:36.699Z,10.80
2019-03-04T05:46:04.947Z,10.80
2019-03-04T05:48:33.202Z,10.70
2019-03-04T05:51:01.429Z,10.70
2019-03-04T05:53:29.758Z,10.60
2019-03-04T05:55:58.002Z,10.60
2019-03-04T05:58:26.236Z,10.70
2019-03-04T06:01:23.182Z,10.70
2019-03-04T06:03:54.449Z,10.70
2019-03-04T06:06:36.155Z,10.70
2019-03-04T06:09:05.015Z,10.70
2019-03-04T06:11:33.264Z,10.70
2019-03-04T06:14:01.475Z,10.70
2019-03-04T06:16:29.733Z,10.70
2019-03-04T06:18:57.964Z,10.70
2019-03-04T06:21:26.200Z,10.80
2019-03-04T06:23:54.511Z,10.80
2019-03-04T06:26:22.803Z,10.90
2019-03-04T06:28:51.030Z,10.80
2019-03-04T06:31:19.268Z,10.80
2019-03-04T06:33:47.498Z,10.90
2019-03-04T06:36:15.749Z,10.80
2019-03-04T06:38:43.987Z,10.80
2019-03-04T06:41:12.281Z,10.70
2019-03-04T06:43:40.530Z,10.70
2019-03-04T06:46:08.762Z,10.70
2019-03-04T06:48:37.020Z,10.70
2019-03-04T06:51:08.503Z,10.80
2019-03-04T06:53:48.980Z,10.80
2019-03-04T06:56:26.295Z,10.90
2019-03-04T06:59:00.924Z,10.90
2019-03-04T07:01:32.412Z,11.00
2019-03-04T07:04:03.924Z,11.00
2019-03-04T07:06:32.170Z,11.10
2019-03-04T07:09:02.250Z,11.20
2019-03-04T07:11:30.510Z,11.30
2019-03-04T07:13:58.745Z,11.30
2019-03-04T07:16:26.977Z,11.30
2019-03-04T07:18:55.205Z,11.30
2019-03-04T07:21:23.436Z,11.30
2019-03-04T07:23:51.672Z,11.30
2019-03-04T07:26:19.930Z,11.30
2019-03-04T07:28:48.155Z,11.40
2019-03-04T07:31:16.426Z,11.50
2019-03-04T07:33:44.652Z,11.50
2019-03-04T07:36:12.944Z,11.60
2019-03-04T07:38:55.455Z,11.60
2019-03-04T07:41:23.772Z,11.60
2019-03-04T07:43:52.010Z,11.60
2019-03-04T07:46:20.253Z,11.60
2019-03-04T07:48:48.521Z,11.70
2019-03-04T07:51:17.794Z,11.80
2019-03-04T07:53:46.808Z,11.80
2019-03-04T07:56:15.329Z,11.90
2019-03-04T07:58:43.606Z,11.90
2019-03-04T08:01:11.831Z,11.90
2019-03-04T08:03:40.061Z,11.80
2019-03-04T08:06:08.316Z,11.90
2019-03-04T08:08:57.622Z,11.90
2019-03-04T08:12:05.511Z,12.00
2019-03-04T08:14:33.729Z,12.10
2019-03-04T08:17:01.951Z,12.30
2019-03-04T08:19:30.195Z,12.20
2019-03-04T08:21:58.421Z,12.30
2019-03-04T08:24:26.669Z,12.20
2019-03-04T08:26:54.939Z,12.20
2019-03-04T08:29:23.231Z,12.10
2019-03-04T08:31:51.471Z,12.10
2019-03-04T08:34:19.716Z,12.10
2019-03-04T08:36:47.967Z,12.00
2019-03-04T08:39:16.184Z,11.90
2019-03-04T08:41:44.430Z,11.80
2019-03-04T08:44:12.681Z,11.70
2019-03-04T08:46:40.911Z,11.50
2019-03-04T08:49:09.270Z,11.30
2019-03-04T08:51:37.583Z,10.90
2019-03-04T08:54:05.874Z,10.50
2019-03-04T08:56:34.106Z,10.30
2019-03-04T08:59:02.352Z,10.20
2019-03-04T09:01:31.380Z,10.10
2019-03-04T09:03:59.700Z,10.20
2019-03-04T09:06:27.937Z,10.30
2019-03-04T09:08:56.176Z,10.30
2019-03-04T09:11:24.414Z,10.50
2019-03-04T09:13:52.666Z,10.60
2019-03-04T09:16:20.912Z,10.70
2019-03-04T09:18:49.146Z,10.80
2019-03-04T09:21:17.429Z,11.00
2019-03-04T09:23:45.673Z,11.20
2019-03-04T09:26:13.922Z,11.30
2019-03-04T09:28:42.131Z,11.60
2019-03-04T09:31:10.448Z,11.80
2019-03-04T09:33:38.831Z,11.70
2019-03-04T09:36:07.080Z,11.50
2019-03-04T09:38:35.316Z,11.40
2019-03-04T09:41:03.542Z,11.40
2019-03-04T09:43:31.793Z,11.40
2019-03-04T09:46:00.027Z,11.50
2019-03-04T09:48:28.275Z,11.50
2019-03-04T09:50:56.499Z,11.50
2019-03-04T09:53:24.730Z,11.50
2019-03-04T09:55:53.043Z,11.60
2019-03-04T09:58:21.389Z,11.70
2019-03-04T10:01:04.681Z,11.70
2019-03-04T10:03:42.089Z,11.90
2019-03-04T10:06:25.570Z,11.90
2019-03-04T10:09:30.254Z,12.00
2019-03-04T10:12:21.206Z,12.00
2019-03-04T10:15:26.148Z,12.10
2019-03-04T10:18:03.494Z,12.10
2019-03-04T10:20:55.777Z,11.90
2019-03-04T10:23:29.917Z,11.90
2019-03-04T10:26:10.351Z,11.80
2019-03-04T10:28:56.929Z,11.70
2019-03-04T10:31:34.365Z,11.60
2019-03-04T10:34:11.788Z,11.70
2019-03-04T10:36:58.165Z,11.70
2019-03-04T10:39:50.373Z,11.50
2019-03-04T10:42:24.860Z,11.50
2019-03-04T10:44:56.343Z,11.50
2019-03-04T10:47:24.592Z,11.40
2019-03-04T10:49:52.824Z,11.40
2019-03-04T10:52:21.054Z,11.30
2019-03-04T10:54:49.293Z,11.30
2019-03-04T10:57:17.550Z,11.30
2019-03-04T10:59:45.803Z,11.20
2019-03-04T11:02:14.030Z,11.10
2019-03-04T11:04:42.339Z,11.00
2019-03-04T11:07:10.581Z,11.00
2019-03-04T11:09:38.836Z,11.00
2019-03-04T11:12:07.069Z,10.90
2019-03-04T11:14:35.317Z,10.90
2019-03-04T11:17:03.564Z,10.90
2019-03-04T11:19:31.804Z,10.90
2019-03-04T11:22:00.085Z,10.90
2019-03-04T11:24:28.306Z,10.90
2019-03-04T11:26:56.551Z,10.80
2019-03-04T11:29:24.782Z,10.90
2019-03-04T11:31:53.022Z,10.90
2019-03-04T11:34:21.250Z,10.80
2019-03-04T11:36:49.481Z,10.80
2019-03-04T11:39:24.970Z,10.80
2019-03-04T11:41:53.258Z,10.70
2019-03-04T11:44:21.588Z,10.80
2019-03-04T11:46:49.882Z,10.80
2019-03-04T11:49:18.120Z,10.70
2019-03-04T11:51:46.359Z,10.70
2019-03-04T11:54:14.581Z,10.80
2019-03-04T11:56:42.827Z,10.80
2019-03-04T11:59:11.080Z,10.80
2019-03-04T12:01:43.926Z,10.80
2019-03-04T12:04:12.135Z,10.80
2019-03-04T12:06:40.468Z,10.80
2019-03-04T12:09:11.282Z,10.80
2019-03-04T12:11:39.527Z,10.80
2019-03-04T12:14:07.747Z,10.70
2019-03-04T12:16:35.995Z,10.70
2019-03-04T12:19:04.232Z,10.70
2019-03-04T12:21:32.470Z,10.70
2019-03-04T12:24:00.719Z,10.70
2019-03-04T12:26:28.962Z,10.70
2019-03-04T12:28:57.210Z,10.70
2019-03-04T12:31:28.481Z,10.70
2019-03-04T12:33:56.924Z,10.60
2019-03-04T12:36:25.170Z,10.60
2019-03-04T12:38:53.403Z,10.50
2019-03-04T12:41:21.641Z,10.60
2019-03-04T12:43:49.878Z,10.60
2019-03-04T12:46:18.145Z,10.60
2019-03-04T12:48:46.394Z,10.60
2019-03-04T12:51:22.811Z,10.60
2019-03-04T12:53:44.587Z,10.80
2019-03-04T12:56:12.825Z,10.80
2019-03-04T12:58:41.055Z,11.00
2019-03-04T13:01:09.295Z,11.10
2019-03-04T13:03:37.534Z,11.30
2019-03-04T13:06:05.800Z,11.50
2019-03-04T13:08:34.016Z,12.10
2019-03-04T13:11:02.249Z,12.50
2019-03-04T13:13:30.480Z,12.70
2019-03-04T13:15:59.881Z,13.30
2019-03-04T13:18:28.101Z,13.40
2019-03-04T13:20:56.347Z,13.20
2019-03-04T13:23:24.566Z,13.40
2019-03-04T13:25:52.799Z,14.20
2019-03-04T13:28:21.018Z,14.80
2019-03-04T13:30:49.321Z,15.50
2019-03-04T13:33:17.581Z,16.40
2019-03-04T13:35:45.807Z,16.70
2019-03-04T13:38:14.118Z,16.80
2019-03-04T13:40:42.336Z,17.30
2019-03-04T13:43:10.590Z,17.10
2019-03-04T13:45:38.827Z,16.70
2019-03-04T13:48:07.085Z,16.80
2019-03-04T13:50:36.655Z,16.60
2019-03-04T13:53:04.894Z,17.40
2019-03-04T13:55:33.126Z,17.40
2019-03-04T13:58:01.398Z,17.40
2019-03-04T14:00:42.890Z,17.30
2019-03-04T14:03:13.579Z,17.00
2019-03-04T14:05:41.808Z,17.00
2019-03-04T14:08:10.058Z,16.50
2019-03-04T14:10:43.030Z,15.60
2019-03-04T14:13:11.298Z,15.90
2019-03-04T14:15:44.897Z,15.90
2019-03-04T14:18:14.752Z,16.20
2019-03-04T14:20:42.991Z,16.60
2019-03-04T14:23:11.242Z,17.10
2019-03-04T14:25:39.496Z,17.90
2019-03-04T14:28:07.738Z,18.40
2019-03-04T14:30:35.975Z,17.90
2019-03-04T14:33:04.216Z,18.30
2019-03-04T14:35:32.467Z,18.40
2019-03-04T14:38:00.713Z,18.10
2019-03-04T14:40:28.955Z,17.00
2019-03-04T14:42:57.182Z,16.20
2019-03-04T14:45:26.060Z,15.70
2019-03-04T14:47:54.654Z,16.60
2019-03-04T14:50:22.977Z,17.60
2019-03-04T14:52:51.276Z,18.10
2019-03-04T14:55:33.936Z,16.80
2019-03-04T14:58:02.286Z,16.70
2019-03-04T15:00:35.888Z,16.90
2019-03-04T15:03:04.202Z,16.20
2019-03-04T15:05:32.445Z,15.70
2019-03-04T15:08:00.687Z,15.80
2019-03-04T15:10:28.939Z,15.90
2019-03-04T15:12:57.193Z,15.70
2019-03-04T15:15:28.319Z,15.20
2019-03-04T15:17:56.636Z,15.30
2019-03-04T15:20:26.022Z,15.40
2019-03-04T15:22:54.253Z,15.10
2019-03-04T15:25:36.339Z,14.80
2019-03-04T15:28:19.224Z,15.00
2019-03-04T15:31:01.185Z,14.70
2019-03-04T15:33:29.408Z,14.70
2019-03-04T15:35:57.652Z,14.10
2019-03-04T15:38:25.888Z,13.30
2019-03-04T15:40:54.189Z,12.90
2019-03-04T15:43:22.411Z,12.50
2019-03-04T15:45:52.365Z,12.20
2019-03-04T15:48:22.730Z,12.00
2019-03-04T15:50:50.983Z,11.80
2019-03-04T15:53:19.222Z,11.10
2019-03-04T15:55:47.465Z,9.70
2019-03-04T15:58:15.726Z,9.00
2019-03-04T16:00:43.948Z,8.80
2019-03-04T16:03:12.187Z,8.50
2019-03-04T16:05:40.429Z,8.10
2019-03-04T16:08:08.680Z,7.80
2019-03-04T16:10:37.246Z,7.50
2019-03-04T16:13:06.412Z,7.30
2019-03-04T16:15:36.378Z,7.30
2019-03-04T16:18:04.702Z,7.30
2019-03-04T16:20:32.999Z,7.30
2019-03-04T16:23:01.237Z,7.30
2019-03-04T16:25:29.469Z,7.40
2019-03-04T16:28:06.529Z,7.30
2019-03-04T16:30:34.763Z,7.40
2019-03-04T16:33:03.142Z,7.40
2019-03-04T16:35:31.393Z,7.30
2019-03-04T16:37:59.617Z,7.20
2019-03-04T16:40:27.866Z,7.20
2019-03-04T16:42:56.113Z,7.20
2019-03-04T16:45:24.910Z,7.20
2019-03-04T16:47:53.149Z,7.10
2019-03-04T16:50:27.605Z,7.10
2019-03-04T16:53:05.211Z,7.10
2019-03-04T16:55:33.443Z,7.10
2019-03-04T16:58:01.723Z,7.10
2019-03-04T17:00:29.990Z,7.10
2019-03-04T17:02:58.215Z,7.10
2019-03-04T17:05:26.706Z,7.10
2019-03-04T17:07:54.932Z,7.10
2019-03-04T17:10:24.515Z,7.20
2019-03-04T17:12:54.445Z,7.20
2019-03-04T17:15:23.673Z,7.20
2019-03-04T17:17:51.896Z,7.10
2019-03-04T17:20:20.120Z,6.90
2019-03-04T17:22:48.415Z,6.80
2019-03-04T17:25:23.774Z,6.70
2019-03-04T17:27:52.001Z,6.70
2019-03-04T17:30:24.485Z,6.70
2019-03-04T17:32:52.744Z,6.80
2019-03-04T17:35:24.604Z,6.70
2019-03-04T17:37:52.907Z,6.80
2019-03-04T17:40:28.871Z,6.70
2019-03-04T17:42:57.210Z,6.70
2019-03-04T17:45:26.371Z,6.80
2019-03-04T17:47:54.604Z,6.80
2019-03-04T17:50:46.501Z,6.70
2019-03-04T17:53:15.570Z,6.80
2019-03-04T17:55:45.075Z,6.80
2019-03-04T17:58:13.309Z,6.80
2019-03-04T18:00:45.894Z,6.80
2019-03-04T18:03:14.116Z,6.80
2019-03-04T18:05:42.371Z,6.80
2019-03-04T18:08:10.598Z,6.70
2019-03-04T18:10:38.851Z,6.70
2019-03-04T18:13:10.560Z,6.60
2019-03-04T18:15:42.685Z,6.70
2019-03-04T18:18:10.912Z,6.60
2019-03-04T18:20:39.168Z,6.60
2019-03-04T18:23:07.391Z,6.60
2019-03-04T18:25:44.975Z,6.60
2019-03-04T18:28:37.003Z,6.50
2019-03-04T18:31:20.747Z,6.50
2019-03-04T18:33:54.790Z,6.50
2019-03-04T18:36:35.179Z,6.40
2019-03-04T18:39:21.842Z,6.40
2019-03-04T18:42:02.859Z,6.30
2019-03-04T18:44:56.371Z,6.30
2019-03-04T18:47:39.188Z,6.20
2019-03-04T18:50:08.080Z,6.20
2019-03-04T18:52:36.307Z,6.30
2019-03-04T18:55:06.488Z,6.20
2019-03-04T18:57:34.736Z,6.20
2019-03-04T19:00:03.333Z,6.20
2019-03-04T19:02:31.551Z,6.20
2019-03-04T19:04:59.794Z,6.30
2019-03-04T19:07:28.018Z,6.30
2019-03-04T19:09:56.253Z,6.30
2019-03-04T19:12:24.476Z,6.30
2019-03-04T19:14:52.710Z,6.30
2019-03-04T19:17:20.961Z,6.30
2019-03-04T19:19:49.180Z,6.30
2019-03-04T19:22:17.390Z,6.30
2019-03-04T19:24:45.620Z,6.30
2019-03-04T19:27:13.894Z,6.30
2019-03-04T19:29:42.118Z,6.30
2019-03-04T19:32:10.340Z,6.30
2019-03-04T19:34:38.575Z,6.30
2019-03-04T19:37:06.974Z,6.40
2019-03-04T19:39:35.205Z,6.50
2019-03-04T19:42:04.208Z,6.50
2019-03-04T19:44:32.535Z,6.50
2019-03-04T19:47:00.773Z,6.50
2019-03-04T19:49:29.009Z,6.50
2019-03-04T19:51:57.281Z,6.60
2019-03-04T19:54:25.554Z,6.60
2019-03-04T19:56:53.822Z,6.50
2019-03-04T19:59:22.042Z,6.50
2019-03-04T20:01:50.270Z,6.50
2019-03-04T20:04:18.550Z,6.50
2019-03-04T20:06:46.777Z,6.50
2019-03-04T20:09:14.996Z,6.50
2019-03-04T20:11:43.260Z,6.50
2019-03-04T20:14:11.474Z,6.40
2019-03-04T20:16:39.707Z,6.40
2019-03-04T20:19:08.000Z,6.40
2019-03-04T20:21:36.231Z,6.20
2019-03-04T20:24:04.470Z,6.20
2019-03-04T20:26:32.686Z,6.20
2019-03-04T20:29:00.954Z,6.00
2019-03-04T20:31:29.176Z,6.00
2019-03-04T20:33:57.405Z,5.90
2019-03-04T20:36:25.977Z,5.90
2019-03-04T20:38:54.410Z,5.90
2019-03-04T20:41:22.698Z,5.90
2019-03-04T20:43:50.932Z,5.80
2019-03-04T20:46:19.169Z,5.80
2019-03-04T20:48:47.384Z,5.80
2019-03-04T20:51:15.622Z,5.70
2019-03-04T20:53:43.878Z,5.70
2019-03-04T20:56:12.121Z,5.60
2019-03-04T20:58:40.334Z,5.60
2019-03-04T21:01:08.581Z,5.60
2019-03-04T21:03:38.503Z,5.60
2019-03-04T21:06:06.847Z,5.60
2019-03-04T21:08:35.083Z,5.50
2019-03-04T21:11:03.314Z,5.50
2019-03-04T21:13:35.936Z,5.50
2019-03-04T21:16:01.529Z,5.50
2019-03-04T21:18:29.753Z,5.50
2019-03-04T21:20:58.277Z,5.50
2019-03-04T21:23:26.500Z,5.50
2019-03-04T21:26:12.750Z,5.40
2019-03-04T21:29:00.914Z,5.40
2019-03-04T21:31:41.204Z,5.30
2019-03-04T21:34:24.625Z,5.30
2019-03-04T21:37:07.954Z,5.30
2019-03-04T21:39:39.118Z,5.20
2019-03-04T21:42:34.660Z,5.20
2019-03-04T21:45:24.616Z,5.30
2019-03-04T21:48:02.204Z,5.30
2019-03-04T21:50:39.030Z,5.40
2019-03-04T21:53:16.272Z,5.30
2019-03-04T21:55:47.816Z,5.40
2019-03-04T21:58:16.039Z,5.40
2019-03-04T22:00:46.165Z,5.40
2019-03-04T22:03:17.985Z,5.40
2019-03-04T22:05:50.262Z,5.40
2019-03-04T22:08:16.263Z,5.50
2019-03-04T22:10:44.560Z,5.40
2019-03-04T22:13:12.830Z,5.40
2019-03-04T22:15:41.070Z,5.40
2019-03-04T22:18:09.278Z,5.40
2019-03-04T22:20:37.517Z,5.40
2019-03-04T22:23:05.877Z,5.40
2019-03-04T22:25:34.096Z,5.40
2019-03-04T22:28:02.376Z,5.50
2019-03-04T22:30:30.581Z,5.50
2019-03-04T22:32:58.806Z,5.40
2019-03-04T22:35:27.036Z,5.40
2019-03-04T22:37:55.270Z,5.40
2019-03-04T22:40:26.035Z,5.40
2019-03-04T22:42:54.268Z,5.40
2019-03-04T22:45:22.519Z,5.40
2019-03-04T22:47:51.497Z,5.50
2019-03-04T22:50:21.404Z,5.40
2019-03-04T22:52:49.693Z,5.40
2019-03-04T22:55:29.795Z,5.40
2019-03-04T22:57:58.031Z,5.40
2019-03-04T23:01:03.826Z,5.30
2019-03-04T23:03:36.711Z,5.30
2019-03-04T23:06:17.315Z,5.30
2019-03-04T23:08:45.572Z,5.30
2019-03-04T23:11:13.946Z,5.30
2019-03-04T23:13:51.243Z,5.30
2019-03-04T23:16:22.508Z,5.30
2019-03-04T23:18:50.727Z,5.40
2019-03-04T23:21:18.964Z,5.40
2019-03-04T23:23:47.210Z,5.40
2019-03-04T23:26:15.534Z,5.40
2019-03-04T23:28:43.756Z,5.40
2019-03-04T23:31:11.997Z,5.40
2019-03-04T23:33:40.233Z,5.40
2019-03-04T23:36:08.470Z,5.40
2019-03-04T23:38:36.738Z,5.40
2019-03-04T23:41:04.974Z,5.40
2019-03-04T23:43:33.206Z,5.40
2019-03-04T23:46:01.457Z,5.40
2019-03-04T23:48:29.812Z,5.40
2019-03-04T23:50:58.069Z,5.40
2019-03-04T23:53:26.288Z,5.40
2019-03-04T23:55:55.384Z,5.50
2019-03-04T23:58:23.623Z,5.50
